Terminal Aerodrome Forecast
Issued by NWS Memphis, TN

Home | Current Version | Previous Version | Text Only | Print | Product List | Glossary On
Versions: 1 2 3 4 5 6 7 8 9 10 11 12 13 14 15 16 17 18 19 20
000
FTUS44 KMEG 211100
TAFMKL
TAF
KMKL 211120Z 2112/2212 23005KT P6SM SCT250
     FM211500 26008KT P6SM VCSH SCT040 BKN250
     FM211800 32010G18KT P6SM VCTS BKN040CB BKN250
     FM220100 36003KT P6SM SKC=

USA.gov is the U.S. government's official web portal to all federal, state and local government web resources and services.